Home > Products > Valid Products > TAF

000
FTUS43 KGRR 011740
TAFGRR
TAF
KGRR 011740Z 0118/0218 21010KT P6SM BKN035
     FM020600 21004KT 5SM BR SCT050
     FM021400 24009KT P6SM SCT035=



000
FTUS43 KGRR 011740
TAFAZO
TAF
KAZO 011740Z 0118/0218 21009KT P6SM VCSH BKN035
     FM020600 20003KT 5SM BR SCT050
     FM021400 24009KT P6SM SCT035=



000
FTUS43 KGRR 011740
TAFJXN
TAF
KJXN 011740Z 0118/0218 21007KT P6SM VCSH BKN035
     FM020600 20003KT 5SM BR SCT050
     FM020900 00000KT 2SM BR SCT050
     FM021400 24007KT P6SM SCT035=



000
FTUS43 KGRR 011740
TAFBTL
TAF
KBTL 011740Z 0118/0218 21009KT P6SM VCSH BKN035
     FM020600 20003KT 5SM BR SCT050
     FM021400 24009KT P6SM SCT035=



000
FTUS43 KGRR 011740
TAFLAN
TAF
KLAN 011740Z 0118/0218 22008KT P6SM BKN035
     FM020600 21003KT 5SM BR SCT050
     FM021400 24009KT P6SM SCT035=



000
FTUS43 KGRR 011740
TAFMKG
TAF
KMKG 011740Z 0118/0218 20010KT P6SM FEW035
     FM020800 21005KT 5SM BR SCT050
     FM021400 24008KT P6SM FEW035=



000
FTUS43 KGRR 011503 AAB
TAFGRR
TAF AMD
KGRR 011503Z 0115/0212 21008KT P6SM SCT035=



000
FTUS43 KGRR 011501 AAA
TAFMKG
TAF AMD
KMKG 011501Z 0115/0212 21010KT P6SM SCT035=



000
FTUS43 KGRR 011501 AAA
TAFMKG
TAF AMD
KMKG 011501Z 0115/0212 21010KT P6SM SCT035=



000
FTUS43 KGRR 011415 AAA
TAFAZO
TAF AMD
KAZO 011415Z 0114/0212 23008KT P6SM SCT035=



000
FTUS43 KGRR 011412 AAA
TAFBTL
TAF AMD
KBTL 011412Z 0114/0212 23008KT P6SM SCT035=



000
FTUS43 KGRR 011412 AAA
TAFBTL
TAF AMD
KBTL 011412Z 0114/0212 23008KT P6SM SCT035=



000
FTUS43 KGRR 011315 AAA
TAFLAN
TAF AMD
KLAN 011315Z 0113/0212 23008KT P6SM SCT035=



000
FTUS43 KGRR 011313 AAA
TAFJXN
TAF AMD
KJXN 011313Z 0113/0212 24005KT 5SM BR SCT010
     FM011400 24008KT P6SM SCT035=



000
FTUS43 KGRR 011130 AAA
TAFMKG
TAF AMD
KMKG 011130Z 0112/0212 VRB03KT 2SM BR SKC
     FM011330 21008KT 5SM BR SCT010
     FM011600 21010KT P6SM SCT035=



000
FTUS43 KGRR 011129 CCA
TAFJXN
TAF COR
KJXN 011129Z 0112/0212 24003KT 2SM BR SCT010
     FM011330 21009KT P6SM SCT035=



000
FTUS43 KGRR 011120
TAFGRR
TAF
KGRR 011120Z 0112/0212 VRB03KT 2SM BR SKC
     FM011330 21008KT 5SM BR SCT010
     FM011600 21010KT P6SM SCT035=



000
FTUS43 KGRR 011120
TAFAZO
TAF
KAZO 011120Z 0112/0212 18003KT 2SM BR SKC
      TEMPO 0112/0113 1SM BR
     FM011400 21008KT 5SM BR SCT010
     FM011600 21009KT P6SM SCT035=



000
FTUS43 KGRR 011120
TAFLAN
TAF
KLAN 011120Z 0112/0212 21008KT 5SM BR SCT010
     FM011600 21009KT P6SM SCT035=



000
FTUS43 KGRR 011120
TAFMKG
TAF
KMKG 011120Z 0112/0212 VRB03KT 4SM BR SKC
     FM011400 21008KT 5SM BR SCT010
     FM011600 21010KT P6SM SCT035=



000
FTUS43 KGRR 011120
TAFBTL
TAF
KBTL 011120Z 0112/0212 18003KT 3SM BR SKC
      TEMPO 0112/0113 2SM BR
     FM011400 21008KT 5SM BR SCT010
     FM011600 21009KT P6SM SCT035=



000
FTUS43 KGRR 011120
TAFJXN
TAF
KJXN 011120Z 0112/0212 24003KT 5SM BR SCT010
     FM011600 21009KT P6SM SCT035=



000
FTUS43 KGRR 011120
TAFGRR
TAF
KGRR 011120Z 0112/0212 VRB03KT 2SM BR SKC
     FM011330 21008KT 5SM BR SCT010
     FM011600 21010KT P6SM SCT035=



000
FTUS43 KGRR 011120
TAFMKG
TAF
KMKG 011120Z 0112/0212 VRB03KT 4SM BR SKC
     FM011400 21008KT 5SM BR SCT010
     FM011600 21010KT P6SM SCT035=



000
FTUS43 KGRR 011120
TAFJXN
TAF
KJXN 011120Z 0112/0212 24003KT 5SM BR SCT010
     FM011600 21009KT P6SM SCT035=



000
FTUS43 KGRR 011120
TAFAZO
TAF
KAZO 011120Z 0112/0212 18003KT 2SM BR SKC
      TEMPO 0112/0113 1SM BR
     FM011400 21008KT 5SM BR SCT010
     FM011600 21009KT P6SM SCT035=



000
FTUS43 KGRR 011120
TAFBTL
TAF
KBTL 011120Z 0112/0212 18003KT 3SM BR SKC
      TEMPO 0112/0113 2SM BR
     FM011400 21008KT 5SM BR SCT010
     FM011600 21009KT P6SM SCT035=



000
FTUS43 KGRR 011120
TAFLAN
TAF
KLAN 011120Z 0112/0212 21008KT 5SM BR SCT010
     FM011600 21009KT P6SM SCT035=



000
FTUS43 KGRR 011053 AAA
TAFLAN
TAF AMD
KLAN 011053Z 0111/0206 VRB03KT 4SM BR SKC
     FM011200 18003KT 1SM BR SKC
     FM011400 21008KT 5SM BR SCT010
     FM011600 21009KT P6SM SCT035=



000
FTUS43 KGRR 010932 AAA
TAFBTL
TAF AMD
KBTL 010932Z 0110/0206 VRB03KT 4SM BR SKC
     FM011040 18003KT 1SM BR SKC
     FM011400 21008KT 5SM BR SCT010
     FM011600 21009KT P6SM SCT035=



000
FTUS43 KGRR 010932 AAA
TAFBTL
TAF AMD
KBTL 010932Z 0110/0206 VRB03KT 4SM BR SKC
     FM011040 18003KT 1SM BR SKC
     FM011400 21008KT 5SM BR SCT010
     FM011600 21009KT P6SM SCT035=



000
FTUS43 KGRR 010931 AAB
TAFJXN
TAF AMD
KJXN 010931Z 0110/0206 VRB03KT 3SM BR SKC
     FM011100 VRB03KT 1SM BR SKC
     FM011400 21008KT 5SM BR SCT010
     FM011600 21009KT P6SM SCT035=



000
FTUS43 KGRR 010931 AAB
TAFGRR
TAF AMD
KGRR 010931Z 0110/0206 VRB03KT 4SM BR SKC
     FM011100 18003KT 1SM BR SKC
     FM011400 21008KT 5SM BR SCT010
     FM011600 21010KT P6SM SCT035=



000
FTUS43 KGRR 010930 AAA
TAFMKG
TAF AMD
KMKG 010930Z 0110/0206 VRB03KT 4SM BR SKC
     FM011100 18003KT 1SM BR SKC
     FM011400 21008KT 5SM BR SCT010
     FM011600 21010KT P6SM SCT035=



000
FTUS43 KGRR 010835 AAA
TAFAZO
TAF AMD
KAZO 010835Z 0109/0206 18003KT 1SM BR SKC
      TEMPO 0109/0113 1/4SM FG VV004
     FM011400 21008KT 5SM BR SCT010
     FM011600 21009KT P6SM SCT035=



000
FTUS43 KGRR 010610 AAA
TAFJXN
TAF AMD
KJXN 010610Z 0106/0206 VRB03KT 3SM BR SKC
     FM010800 VRB03KT 1SM BR SKC
     FM011400 21008KT 5SM BR SCT010
     FM011600 21009KT P6SM SCT035=



000
FTUS43 KGRR 010610 AAA
TAFJXN
TAF AMD
KJXN 010610Z 0106/0206 VRB03KT 3SM BR SKC
     FM010800 VRB03KT 1SM BR SKC
     FM011400 21008KT 5SM BR SCT010
     FM011600 21009KT P6SM SCT035=



000
FTUS43 KGRR 010520
TAFAZO
TAF
KAZO 010520Z 0106/0206 VRB03KT 4SM BR SKC
     FM010800 18003KT 1SM BR SKC
     FM011400 21008KT 5SM BR SCT010
     FM011600 21009KT P6SM SCT035=



000
FTUS43 KGRR 010520
TAFJXN
TAF
KJXN 010520Z 0106/0206 VRB03KT 1SM BR SKC
     FM011400 21008KT 5SM BR SCT010
     FM011600 21009KT P6SM SCT035=



000
FTUS43 KGRR 010520
TAFMKG
TAF
KMKG 010520Z 0106/0206 VRB03KT 2SM BR SKC
     FM010800 18003KT 1SM BR SKC
     FM011400 21008KT 5SM BR SCT010
     FM011600 21010KT P6SM SCT035=



000
FTUS43 KGRR 010520
TAFLAN
TAF
KLAN 010520Z 0106/0206 VRB03KT 4SM BR SKC
     FM010800 18003KT 1SM BR SKC
     FM011400 21008KT 5SM BR SCT010
     FM011600 21009KT P6SM SCT035=



000
FTUS43 KGRR 010520
TAFGRR
TAF
KGRR 010520Z 0106/0206 VRB03KT 4SM BR SKC
     FM010800 18003KT 1SM BR SKC
     FM011400 21008KT 5SM BR SCT010
     FM011600 21010KT P6SM SCT035=



000
FTUS43 KGRR 010520
TAFAZO
TAF
KAZO 010520Z 0106/0206 VRB03KT 4SM BR SKC
     FM010800 18003KT 1SM BR SKC
     FM011400 21008KT 5SM BR SCT010
     FM011600 21009KT P6SM SCT035=



000
FTUS43 KGRR 010520
TAFJXN
TAF
KJXN 010520Z 0106/0206 VRB03KT 1SM BR SKC
     FM011400 21008KT 5SM BR SCT010
     FM011600 21009KT P6SM SCT035=



000
FTUS43 KGRR 010520
TAFLAN
TAF
KLAN 010520Z 0106/0206 VRB03KT 4SM BR SKC
     FM010800 18003KT 1SM BR SKC
     FM011400 21008KT 5SM BR SCT010
     FM011600 21009KT P6SM SCT035=



000
FTUS43 KGRR 010520
TAFBTL
TAF
KBTL 010520Z 0106/0206 VRB03KT 4SM BR SKC
     FM010800 18003KT 1SM BR SKC
     FM011400 21008KT 5SM BR SCT010
     FM011600 21009KT P6SM SCT035=



000
FTUS43 KGRR 010520
TAFMKG
TAF
KMKG 010520Z 0106/0206 VRB03KT 2SM BR SKC
     FM010800 18003KT 1SM BR SKC
     FM011400 21008KT 5SM BR SCT010
     FM011600 21010KT P6SM SCT035=



000
FTUS43 KGRR 010520
TAFBTL
TAF
KBTL 010520Z 0106/0206 VRB03KT 4SM BR SKC
     FM010800 18003KT 1SM BR SKC
     FM011400 21008KT 5SM BR SCT010
     FM011600 21009KT P6SM SCT035=



000
FTUS43 KGRR 010520
TAFGRR
TAF
KGRR 010520Z 0106/0206 VRB03KT 4SM BR SKC
     FM010800 18003KT 1SM BR SKC
     FM011400 21008KT 5SM BR SCT010
     FM011600 21010KT P6SM SCT035=



000
FTUS43 KGRR 010311 AAA
TAFJXN
TAF AMD
KJXN 010311Z 0103/0124 VRB03KT 1SM BR SKC
     FM011400 21008KT 5SM BR SCT010
     FM011600 21009KT P6SM SCT035=



000
FTUS43 KGRR 010311 AAA
TAFJXN
TAF AMD
KJXN 010311Z 0103/0124 VRB03KT 1SM BR SKC
     FM011400 21008KT 5SM BR SCT010
     FM011600 21009KT P6SM SCT035=



000
FTUS43 KGRR 312342
TAFJXN
TAF
KJXN 312342Z 0100/0124 VRB03KT P6SM SKC
     FM010300 VRB03KT 4SM BR SKC
     FM010800 18003KT 1SM BR BKN005
     FM011400 21008KT 5SM BR SCT010
     FM011600 21009KT P6SM SCT035=



000
FTUS43 KGRR 312342
TAFMKG
TAF
KMKG 312342Z 0100/0124 VRB03KT P6SM SKC
     FM010200 VRB03KT 4SM BR SKC
     FM010800 18003KT 1SM BR BKN005
     FM011400 21008KT 5SM BR SCT010
     FM011600 21010KT P6SM SCT035=



000
FTUS43 KGRR 312342
TAFGRR
TAF
KGRR 312342Z 0100/0124 VRB03KT P6SM SKC
     FM010400 VRB03KT 4SM BR SKC
     FM010800 18003KT 1SM BR BKN005
     FM011400 21008KT 5SM BR SCT010
     FM011600 21010KT P6SM SCT035=



000
FTUS43 KGRR 312342
TAFBTL
TAF
KBTL 312342Z 0100/0124 VRB03KT P6SM SKC
     FM010300 VRB03KT 4SM BR SKC
     FM010800 18003KT 1SM BR BKN005
     FM011400 21008KT 5SM BR SCT010
     FM011600 21009KT P6SM SCT035=



000
FTUS43 KGRR 312342
TAFAZO
TAF
KAZO 312342Z 0100/0124 VRB03KT P6SM SKC
     FM010300 VRB03KT 4SM BR SKC
     FM010800 18003KT 1SM BR BKN005
     FM011400 21008KT 5SM BR SCT010
     FM011600 21009KT P6SM SCT035=



000
FTUS43 KGRR 312342
TAFLAN
TAF
KLAN 312342Z 0100/0124 VRB03KT P6SM SKC
     FM010400 VRB03KT 4SM BR SKC
     FM010800 18003KT 1SM BR BKN005
     FM011400 21008KT 5SM BR SCT010
     FM011600 21009KT P6SM SCT035=



000
FTUS43 KGRR 311936 AAA
TAFBTL
TAF AMD
KBTL 311936Z 3120/0118 24007KT P6SM FEW025
     FM010300 00000KT 5SM BR SKC
     FM010900 00000KT 3/4SM BR BKN005
     FM011400 21004KT 5SM BR SCT010
     FM011600 22007KT P6SM SCT025=



000
FTUS43 KGRR 311936 AAA
TAFAZO
TAF AMD
KAZO 311936Z 3120/0118 24007KT P6SM FEW025
     FM010300 00000KT 5SM BR SKC
     FM010900 00000KT 3/4SM BR BKN005
     FM011400 21004KT 5SM BR SCT010
     FM011600 22007KT P6SM SCT025=



000
FTUS43 KGRR 311936 AAA
TAFJXN
TAF AMD
KJXN 311936Z 3120/0118 26005KT P6SM FEW025
     FM010300 00000KT 5SM BR SKC
     FM010900 00000KT 3/4SM BR BKN005
     FM011400 21004KT 5SM BR SCT010
     FM011600 22007KT P6SM SCT025=



000
FTUS43 KGRR 311740
TAFGRR
TAF
KGRR 311740Z 3118/0118 24007KT P6SM SCT025
     FM010300 00000KT 5SM BR SKC
     FM010900 00000KT 3/4SM BR BKN005
     FM011400 21004KT 5SM BR SCT010
     FM011600 22007KT P6SM SCT025=



000
FTUS43 KGRR 311740
TAFAZO
TAF
KAZO 311740Z 3118/0118 24007KT P6SM BKN025
     FM312000 24007KT P6SM SCT025
     FM010300 00000KT 5SM BR SKC
     FM010900 00000KT 3/4SM BR BKN005
     FM011400 21004KT 5SM BR SCT010
     FM011600 22007KT P6SM SCT025=



000
FTUS43 KGRR 311740
TAFBTL
TAF
KBTL 311740Z 3118/0118 24007KT P6SM BKN020
     FM312000 24007KT P6SM SCT025
     FM010300 00000KT 5SM BR SKC
     FM010900 00000KT 3/4SM BR BKN005
     FM011400 21004KT 5SM BR SCT010
     FM011600 22007KT P6SM SCT025=



000
FTUS43 KGRR 311740
TAFJXN
TAF
KJXN 311740Z 3118/0118 24007KT P6SM BKN020
     FM312100 26005KT P6SM SCT025
     FM010300 00000KT 5SM BR SKC
     FM010900 00000KT 3/4SM BR BKN005
     FM011400 21004KT 5SM BR SCT010
     FM011600 22007KT P6SM SCT025=



000
FTUS43 KGRR 311740
TAFLAN
TAF
KLAN 311740Z 3118/0118 24006KT P6SM SCT025
     FM010300 00000KT 5SM BR SKC
     FM010900 00000KT 3/4SM BR BKN005
     FM011400 23004KT 5SM BR SCT010
     FM011600 23007KT P6SM SCT025=



000
FTUS43 KGRR 311740
TAFMKG
TAF
KMKG 311740Z 3118/0118 23007KT P6SM SCT020
     FM010200 20003KT 4SM BR SKC
     FM010800 18003KT 3/4SM BR BKN005
     FM011400 21008KT 5SM BR SCT010
     FM011600 21010KT P6SM SCT025=



000
FTUS43 KGRR 311740
TAFBTL
TAF
KBTL 311740Z 3118/0118 24007KT P6SM BKN020
     FM312000 24007KT P6SM SCT025
     FM010300 00000KT 5SM BR SKC
     FM010900 00000KT 3/4SM BR BKN005
     FM011400 21004KT 5SM BR SCT010
     FM011600 22007KT P6SM SCT025=



000
FTUS43 KGRR 311740
TAFJXN
TAF
KJXN 311740Z 3118/0118 24007KT P6SM BKN020
     FM312100 26005KT P6SM SCT025
     FM010300 00000KT 5SM BR SKC
     FM010900 00000KT 3/4SM BR BKN005
     FM011400 21004KT 5SM BR SCT010
     FM011600 22007KT P6SM SCT025=



000
FTUS43 KGRR 311740
TAFGRR
TAF
KGRR 311740Z 3118/0118 24007KT P6SM SCT025
     FM010300 00000KT 5SM BR SKC
     FM010900 00000KT 3/4SM BR BKN005
     FM011400 21004KT 5SM BR SCT010
     FM011600 22007KT P6SM SCT025=



000
FTUS43 KGRR 311740
TAFMKG
TAF
KMKG 311740Z 3118/0118 23007KT P6SM SCT020
     FM010200 20003KT 4SM BR SKC
     FM010800 18003KT 3/4SM BR BKN005
     FM011400 21008KT 5SM BR SCT010
     FM011600 21010KT P6SM SCT025=



000
FTUS43 KGRR 311740
TAFLAN
TAF
KLAN 311740Z 3118/0118 24006KT P6SM SCT025
     FM010300 00000KT 5SM BR SKC
     FM010900 00000KT 3/4SM BR BKN005
     FM011400 23004KT 5SM BR SCT010
     FM011600 23007KT P6SM SCT025=



000
FTUS43 KGRR 311740
TAFAZO
TAF
KAZO 311740Z 3118/0118 24007KT P6SM BKN025
     FM312000 24007KT P6SM SCT025
     FM010300 00000KT 5SM BR SKC
     FM010900 00000KT 3/4SM BR BKN005
     FM011400 21004KT 5SM BR SCT010
     FM011600 22007KT P6SM SCT025=



000
FTUS43 KGRR 311448 AAB
TAFGRR
TAF AMD
KGRR 311448Z 3115/0112 21006KT 6SM HZ SCT010
     FM311800 24008KT P6SM SCT040
     FM010600 VRB03KT 4SM BR SKC=



000
FTUS43 KGRR 311445 AAA
TAFMKG
TAF AMD
KMKG 311445Z 3115/0112 00000KT 3SM BR BKN008
     FM311600 25006KT 5SM HZ BKN015
     FM311800 23009KT P6SM SCT040
     FM010600 VRB03KT 4SM BR SKC=



000
FTUS43 KGRR 311123
TAFJXN
TAF
KJXN 311123Z 3112/0112 00000KT 2SM BR BKN015
     FM311400 23006KT 6SM HZ BKN015
     FM311800 24007KT P6SM SCT040
     FM010600 VRB03KT 4SM BR SKC
     FM011000 00000KT 1/2SM FG BKN002=



000
FTUS43 KGRR 311123
TAFJXN
TAF
KJXN 311123Z 3112/0112 00000KT 2SM BR BKN015
     FM311400 23006KT 6SM HZ BKN015
     FM311800 24007KT P6SM SCT040
     FM010600 VRB03KT 4SM BR SKC
     FM011000 00000KT 1/2SM FG BKN002=



000
FTUS43 KGRR 311123
TAFGRR
TAF
KGRR 311123Z 3112/0112 00000KT 1/4SM FG VV002
      TEMPO 3112/3114 2SM BR BKN008
     FM311500 23006KT 6SM HZ BKN015
     FM311800 24008KT P6SM SCT040
     FM010600 VRB03KT 4SM BR SKC=



000
FTUS43 KGRR 311123
TAFBTL
TAF
KBTL 311123Z 3112/0112 00000KT 2SM BR SCT003
     FM311400 23006KT 6SM HZ BKN015
     FM311800 24007KT P6SM SCT040
     FM010600 VRB03KT 4SM BR SKC=



000
FTUS43 KGRR 311123
TAFMKG
TAF
KMKG 311123Z 3112/0112 00000KT 2SM BR OVC008
      TEMPO 3112/3114 1/2SM FG VV004
     FM311400 22006KT 6SM HZ BKN015
     FM311800 22009KT P6SM SCT040
     FM010600 VRB03KT 4SM BR SKC=



000
FTUS43 KGRR 311123
TAFAZO
TAF
KAZO 311123Z 3112/0112 00000KT 2SM BR SCT015
     FM311400 23006KT 6SM HZ BKN015
     FM311800 24007KT P6SM SCT040
     FM010600 VRB03KT 4SM BR SKC=



000
FTUS43 KGRR 311123
TAFLAN
TAF
KLAN 311123Z 3112/0112 00000KT 1SM BR VV004
     FM311500 23006KT 6SM HZ BKN015
     FM311800 24007KT P6SM SCT040
     FM010600 VRB03KT 4SM BR SKC=



000
FTUS43 KGRR 311123
TAFAZO
TAF
KAZO 311123Z 3112/0112 00000KT 2SM BR SCT015
     FM311400 23006KT 6SM HZ BKN015
     FM311800 24007KT P6SM SCT040
     FM010600 VRB03KT 4SM BR SKC=



000
FTUS43 KGRR 311123
TAFGRR
TAF
KGRR 311123Z 3112/0112 00000KT 1/4SM FG VV002
      TEMPO 3112/3114 2SM BR BKN008
     FM311500 23006KT 6SM HZ BKN015
     FM311800 24008KT P6SM SCT040
     FM010600 VRB03KT 4SM BR SKC=



000
FTUS43 KGRR 311123
TAFBTL
TAF
KBTL 311123Z 3112/0112 00000KT 2SM BR SCT003
     FM311400 23006KT 6SM HZ BKN015
     FM311800 24007KT P6SM SCT040
     FM010600 VRB03KT 4SM BR SKC=



000
FTUS43 KGRR 311123
TAFLAN
TAF
KLAN 311123Z 3112/0112 00000KT 1SM BR VV004
     FM311500 23006KT 6SM HZ BKN015
     FM311800 24007KT P6SM SCT040
     FM010600 VRB03KT 4SM BR SKC=



000
FTUS43 KGRR 311123
TAFMKG
TAF
KMKG 311123Z 3112/0112 00000KT 2SM BR OVC008
      TEMPO 3112/3114 1/2SM FG VV004
     FM311400 22006KT 6SM HZ BKN015
     FM311800 22009KT P6SM SCT040
     FM010600 VRB03KT 4SM BR SKC=



000
FTUS43 KGRR 311007 AAB
TAFGRR
TAF AMD
KGRR 311007Z 3110/0106 00000KT 1/4SM FG VV002
     FM311200 00000KT 1SM BR OVC008
     FM311500 23006KT 6SM HZ BKN015
     FM311800 24008KT P6SM SCT040=



000
FTUS43 KGRR 310849 AAA
TAFAZO
TAF AMD
KAZO 310849Z 3109/0106 00000KT 2SM BR SCT003
      TEMPO 3109/3112 1/4SM FG VV003
     FM311400 00000KT 1SM BR OVC008
     FM311500 23006KT 6SM HZ BKN015
     FM311800 24007KT P6SM SCT040=



000
FTUS43 KGRR 310828 AAA
TAFLAN
TAF AMD
KLAN 310828Z 3108/0106 00000KT 1/4SM FG VV002
     FM311500 23006KT 6SM HZ BKN015
     FM311800 24007KT P6SM SCT040=



000
FTUS43 KGRR 310703 AAA
TAFBTL
TAF AMD
KBTL 310703Z 3107/0106 00000KT 2SM BR SCT003
      TEMPO 3107/3111 1/4SM FG VV002
     FM311400 00000KT 1SM BR OVC008
     FM311500 23006KT 6SM HZ BKN015
     FM311800 24007KT P6SM SCT040=



000
FTUS43 KGRR 310703 AAA
TAFBTL
TAF AMD
KBTL 310703Z 3107/0106 00000KT 2SM BR SCT003
      TEMPO 3107/3111 1/4SM FG VV002
     FM311400 00000KT 1SM BR OVC008
     FM311500 23006KT 6SM HZ BKN015
     FM311800 24007KT P6SM SCT040=



000
FTUS43 KGRR 310611 AAA
TAFMKG
TAF AMD
KMKG 310611Z 3106/0106 00000KT 1/4SM FG VV004
     FM311400 22006KT 6SM HZ BKN015
     FM311800 22009KT P6SM SCT040=



000
FTUS43 KGRR 310611 AAA
TAFJXN
TAF AMD
KJXN 310611Z 3106/0106 00000KT 1/4SM FG VV002
     FM311400 23006KT 6SM HZ BKN015
     FM311800 24007KT P6SM SCT040=



000
FTUS43 KGRR 310611 AAA
TAFMKG
TAF AMD
KMKG 310611Z 3106/0106 00000KT 1/4SM FG VV004
     FM311400 22006KT 6SM HZ BKN015
     FM311800 22009KT P6SM SCT040=



000
FTUS43 KGRR 310611 AAA
TAFJXN
TAF AMD
KJXN 310611Z 3106/0106 00000KT 1/4SM FG VV002
     FM311400 23006KT 6SM HZ BKN015
     FM311800 24007KT P6SM SCT040=



000
FTUS43 KGRR 310520
TAFLAN
TAF
KLAN 310520Z 3106/0106 00000KT 1 1/2SM BR SCT015
     FM310800 00000KT 1SM BR OVC008
     FM311500 23006KT 6SM HZ BKN015
     FM311800 24007KT P6SM SCT040=



000
FTUS43 KGRR 310520
TAFGRR
TAF
KGRR 310520Z 3106/0106 00000KT 1 1/2SM BR SCT015
     FM310800 00000KT 1SM BR OVC008
     FM311500 23006KT 6SM HZ BKN015
     FM311800 24008KT P6SM SCT040=



000
FTUS43 KGRR 310520
TAFMKG
TAF
KMKG 310520Z 3106/0106 00000KT 1 1/2SM BR SCT015
     FM310800 00000KT 1SM BR OVC008
     FM311500 22006KT 6SM HZ BKN015
     FM311800 22009KT P6SM SCT040=



000
FTUS43 KGRR 310520
TAFLAN
TAF
KLAN 310520Z 3106/0106 00000KT 1 1/2SM BR SCT015
     FM310800 00000KT 1SM BR OVC008
     FM311500 23006KT 6SM HZ BKN015
     FM311800 24007KT P6SM SCT040=



000
FTUS43 KGRR 310520
TAFBTL
TAF
KBTL 310520Z 3106/0106 00000KT 1/4SM FG VV003
     FM311400 00000KT 1SM BR OVC008
     FM311500 23006KT 6SM HZ BKN015
     FM311800 24007KT P6SM SCT040=



000
FTUS43 KGRR 310520
TAFJXN
TAF
KJXN 310520Z 3106/0106 00000KT 1 1/2SM BR SCT015
     FM310800 00000KT 1/2SM FG VV004
     FM311400 23006KT 6SM HZ BKN015
     FM311800 24007KT P6SM SCT040=



000
FTUS43 KGRR 310520
TAFAZO
TAF
KAZO 310520Z 3106/0106 00000KT 1/4SM FG VV003
     FM311400 00000KT 1SM BR OVC008
     FM311500 23006KT 6SM HZ BKN015
     FM311800 24007KT P6SM SCT040=



000
FTUS43 KGRR 310520
TAFBTL
TAF
KBTL 310520Z 3106/0106 00000KT 1/4SM FG VV003
     FM311400 00000KT 1SM BR OVC008
     FM311500 23006KT 6SM HZ BKN015
     FM311800 24007KT P6SM SCT040=



000
FTUS43 KGRR 310520
TAFJXN
TAF
KJXN 310520Z 3106/0106 00000KT 1 1/2SM BR SCT015
     FM310800 00000KT 1/2SM FG VV004
     FM311400 23006KT 6SM HZ BKN015
     FM311800 24007KT P6SM SCT040=



000
FTUS43 KGRR 310520
TAFAZO
TAF
KAZO 310520Z 3106/0106 00000KT 1/4SM FG VV003
     FM311400 00000KT 1SM BR OVC008
     FM311500 23006KT 6SM HZ BKN015
     FM311800 24007KT P6SM SCT040=



000
FTUS43 KGRR 310520
TAFGRR
TAF
KGRR 310520Z 3106/0106 00000KT 1 1/2SM BR SCT015
     FM310800 00000KT 1SM BR OVC008
     FM311500 23006KT 6SM HZ BKN015
     FM311800 24008KT P6SM SCT040=



000
FTUS43 KGRR 310520
TAFMKG
TAF
KMKG 310520Z 3106/0106 00000KT 1 1/2SM BR SCT015
     FM310800 00000KT 1SM BR OVC008
     FM311500 22006KT 6SM HZ BKN015
     FM311800 22009KT P6SM SCT040=



000
FTUS43 KGRR 310414 AAA
TAFBTL
TAF AMD
KBTL 310414Z 3104/3124 00000KT 1/4SM FG VV003
     FM311400 00000KT 1SM BR OVC008
     FM311500 23006KT 6SM HZ BKN015
     FM311800 24007KT P6SM SCT040=



000
FTUS43 KGRR 310414 AAA
TAFBTL
TAF AMD
KBTL 310414Z 3104/3124 00000KT 1/4SM FG VV003
     FM311400 00000KT 1SM BR OVC008
     FM311500 23006KT 6SM HZ BKN015
     FM311800 24007KT P6SM SCT040=



000
FTUS43 KGRR 310353 AAC
TAFAZO
TAF AMD
KAZO 310353Z 3104/3124 00000KT 1/4SM FG VV003
     FM311400 00000KT 1SM BR OVC008
     FM311500 23006KT 6SM HZ BKN015
     FM311800 24007KT P6SM SCT040=



000
FTUS43 KGRR 310328 AAB
TAFAZO
TAF AMD
KAZO 310328Z 3103/3124 00000KT 1SM BR SCT025
     FM310600 00000KT 1SM BR SCT015
     FM310800 00000KT 1SM BR OVC008
     FM311500 23006KT 6SM HZ BKN015
     FM311800 24007KT P6SM SCT040=



000
FTUS43 KGRR 310308 AAB
TAFGRR
TAF AMD
KGRR 310308Z 3103/3124 00000KT 4SM BR SKC
     FM310600 00000KT 1 1/2SM BR SCT015
     FM310800 00000KT 1SM BR OVC008
     FM311500 23006KT 6SM HZ BKN015
     FM311800 24008KT P6SM SCT040=



000
FTUS43 KGRR 310308 AAA
TAFJXN
TAF AMD
KJXN 310308Z 3103/3124 00000KT 2SM BR SKC
     FM310600 00000KT 1 1/2SM BR SCT015
     FM310800 00000KT 1SM BR OVC008
     FM311500 23006KT 6SM HZ BKN015
     FM311800 24007KT P6SM SCT040=



000
FTUS43 KGRR 310307 AAA
TAFAZO
TAF AMD
KAZO 310307Z 3103/3124 00000KT 1 1/2SM BR SCT025
     FM310600 00000KT 1 1/2SM BR SCT015
     FM310800 00000KT 1SM BR OVC008
     FM311500 23006KT 6SM HZ BKN015
     FM311800 24007KT P6SM SCT040=



000
FTUS43 KGRR 302340
TAFMKG
TAF
KMKG 302340Z 3100/3124 VRB03KT 6SM HZ SCT035
     FM310230 00000KT 4SM BR SCT035
     FM310600 00000KT 1 1/2SM BR SCT015
     FM310800 00000KT 1SM BR OVC008
     FM311500 22006KT 6SM HZ BKN015
     FM311800 22009KT P6SM SCT040=



000
FTUS43 KGRR 302340
TAFGRR
TAF
KGRR 302340Z 3100/3124 VRB03KT P6SM SCT035
     FM310330 00000KT 4SM BR SCT035
     FM310600 00000KT 1 1/2SM BR SCT015
     FM310800 00000KT 1SM BR OVC008
     FM311500 23006KT 6SM HZ BKN015
     FM311800 24008KT P6SM SCT040=



000
FTUS43 KGRR 302340
TAFJXN
TAF
KJXN 302340Z 3100/3124 VRB03KT P6SM SCT035
     FM310330 00000KT 4SM BR SCT035
     FM310600 00000KT 1 1/2SM BR SCT015
     FM310800 00000KT 1SM BR OVC008
     FM311500 23006KT 6SM HZ BKN015
     FM311800 24007KT P6SM SCT040=



000
FTUS43 KGRR 302340
TAFAZO
TAF
KAZO 302340Z 3100/3124 VRB03KT P6SM SCT035
     FM310330 00000KT 4SM BR SCT035
     FM310600 00000KT 1 1/2SM BR SCT015
     FM310800 00000KT 1SM BR OVC008
     FM311500 23006KT 6SM HZ BKN015
     FM311800 24007KT P6SM SCT040=



000
FTUS43 KGRR 302340
TAFBTL
TAF
KBTL 302340Z 3100/3124 VRB03KT P6SM SCT035
     FM310330 00000KT 4SM BR SCT035
     FM310600 00000KT 1 1/2SM BR SCT015
     FM310800 00000KT 1SM BR OVC008
     FM311500 23006KT 6SM HZ BKN015
     FM311800 24007KT P6SM SCT040=



000
FTUS43 KGRR 302340
TAFLAN
TAF
KLAN 302340Z 3100/3124 VRB03KT P6SM SCT035
     FM310330 00000KT 4SM BR SCT035
     FM310600 00000KT 1 1/2SM BR SCT015
     FM310800 00000KT 1SM BR OVC008
     FM311500 23006KT 6SM HZ BKN015
     FM311800 24007KT P6SM SCT040=



000
FTUS43 KGRR 302001 AAA
TAFMKG
TAF AMD
KMKG 302001Z 3020/3118 26006KT P6SM SCT015 BKN035
     FM310000 24003KT 5SM BR SCT015
     FM310600 21002KT 1 1/2SM BR BKN005
     FM311500 24006KT 5SM BR SCT025=



000
FTUS43 KGRR 302000 AAB
TAFLAN
TAF AMD
KLAN 302000Z 3020/3118 25007KT P6SM SCT025 BKN035
     FM310300 00000KT 5SM BR SCT025
     FM310900 00000KT 1 1/2SM BR BKN005
     FM311500 24006KT P6SM SCT025=



000
FTUS43 KGRR 301959 AAB
TAFBTL
TAF AMD
KBTL 301959Z 3020/3118 25007KT P6SM SCT025 BKN035
     FM310300 00000KT 5SM BR SCT025
     FM310900 00000KT 1 1/2SM BR BKN005
     FM311500 24006KT P6SM SCT025=



000
FTUS43 KGRR 301959 AAB
TAFAZO
TAF AMD
KAZO 301959Z 3020/3118 24005KT P6SM SCT020 BKN035
     FM310300 00000KT 5SM BR SCT025
     FM310900 00000KT 1 1/2SM BR BKN005
     FM311500 24006KT P6SM SCT025=



000
FTUS43 KGRR 301959 AAB
TAFBTL
TAF AMD
KBTL 301959Z 3020/3118 25007KT P6SM SCT025 BKN035
     FM310300 00000KT 5SM BR SCT025
     FM310900 00000KT 1 1/2SM BR BKN005
     FM311500 24006KT P6SM SCT025=



000
FTUS43 KGRR 301959 AAB
TAFAZO
TAF AMD
KAZO 301959Z 3020/3118 24005KT P6SM SCT020 BKN035
     FM310300 00000KT 5SM BR SCT025
     FM310900 00000KT 1 1/2SM BR BKN005
     FM311500 24006KT P6SM SCT025=



000
FTUS43 KGRR 301958 AAB
TAFGRR
TAF AMD
KGRR 301958Z 3020/3118 26006KT P6SM SCT025 BKN035
     FM310200 00000KT 5SM BR SCT025
     FM310800 00000KT 1 1/2SM BR BKN005
     FM311500 24006KT P6SM SCT025=



000
FTUS43 KGRR 301958 AAB
TAFGRR
TAF AMD
KGRR 301958Z 3020/3118 26006KT P6SM SCT025 BKN035
     FM310200 00000KT 5SM BR SCT025
     FM310800 00000KT 1 1/2SM BR BKN005
     FM311500 24006KT P6SM SCT025=



000
FTUS43 KGRR 301955 AAA
TAFJXN
TAF AMD
KJXN 301955Z 3020/3118 28006KT P6SM SCT025 BKN035
     FM310300 00000KT 5SM BR SCT025
     FM310900 00000KT 1 1/2SM BR BKN005
     FM311500 24006KT 5SM BR SCT025=



000
FTUS43 KGRR 301951 AAA
TAFLAN
TAF AMD
KLAN 301951Z 3020/3118 25007KT P6SM SCT025 BKN035
     FM310300 00000KT 5SM BR SCT025
     FM310900 00000KT 1 1/2SM BR BKN005=



000
FTUS43 KGRR 301950 AAA
TAFBTL
TAF AMD
KBTL 301950Z 3020/3118 25007KT P6SM SCT025 BKN035
     FM310300 00000KT 5SM BR SCT025
     FM310900 00000KT 1 1/2SM BR BKN005=



000
FTUS43 KGRR 301949 AAA
TAFAZO
TAF AMD
KAZO 301949Z 3020/3118 24005KT P6SM SCT020 BKN035
     FM310300 00000KT 5SM BR SCT025
     FM310900 00000KT 1 1/2SM BR BKN005=



000
FTUS43 KGRR 301949 AAA
TAFGRR
TAF AMD
KGRR 301949Z 3020/3118 26006KT P6SM SCT025 BKN035
     FM310200 00000KT 5SM BR SCT025
     FM310800 00000KT 1 1/2SM BR BKN005=



000
FTUS43 KGRR 301949 AAA
TAFGRR
TAF AMD
KGRR 301949Z 3020/3118 26006KT P6SM SCT025 BKN035
     FM310200 00000KT 5SM BR SCT025
     FM310800 00000KT 1 1/2SM BR BKN005=



000
FTUS43 KGRR 301736
TAFGRR
TAF
KGRR 301736Z 3018/3118 VRB03KT 6SM HZ BKN015 OVC025
     FM302000 26005KT P6SM BKN025
     FM310200 00000KT 5SM BR SCT025
     FM310800 00000KT 1 1/2SM BR BKN005=



000
FTUS43 KGRR 301736
TAFAZO
TAF
KAZO 301736Z 3018/3118 25005KT P6SM BKN015 OVC025
     FM302000 27005KT P6SM BKN025
     FM310300 00000KT 5SM BR SCT025
     FM310900 00000KT 1 1/2SM BR BKN005=



000
FTUS43 KGRR 301736
TAFJXN
TAF
KJXN 301736Z 3018/3118 24005KT P6SM BKN015
     FM302000 26005KT P6SM BKN025
     FM310300 00000KT 5SM BR SCT025
     FM310900 00000KT 1 1/2SM BR BKN005=



000
FTUS43 KGRR 301736
TAFBTL
TAF
KBTL 301736Z 3018/3118 25005KT P6SM BKN015 OVC025
     FM302000 27005KT P6SM BKN025
     FM310300 00000KT 5SM BR SCT025
     FM310900 00000KT 1 1/2SM BR BKN005=



000
FTUS43 KGRR 301736
TAFLAN
TAF
KLAN 301736Z 3018/3118 25005KT 6SM HZ BKN015 OVC025
     FM302000 27005KT P6SM BKN025
     FM310300 00000KT 5SM BR SCT025
     FM310900 00000KT 1 1/2SM BR BKN005=



000
FTUS43 KGRR 301736
TAFMKG
TAF
KMKG 301736Z 3018/3118 26004KT P6SM OVC015
     FM310000 24003KT 5SM BR SCT015
     FM310600 21002KT 1 1/2SM BR BKN005=



000
FTUS43 KGRR 301736
TAFGRR
TAF
KGRR 301736Z 3018/3118 VRB03KT 6SM HZ BKN015 OVC025
     FM302000 26005KT P6SM BKN025
     FM310200 00000KT 5SM BR SCT025
     FM310800 00000KT 1 1/2SM BR BKN005=



000
FTUS43 KGRR 301736
TAFMKG
TAF
KMKG 301736Z 3018/3118 26004KT P6SM OVC015
     FM310000 24003KT 5SM BR SCT015
     FM310600 21002KT 1 1/2SM BR BKN005=



000
FTUS43 KGRR 301736
TAFJXN
TAF
KJXN 301736Z 3018/3118 24005KT P6SM BKN015
     FM302000 26005KT P6SM BKN025
     FM310300 00000KT 5SM BR SCT025
     FM310900 00000KT 1 1/2SM BR BKN005=



000
FTUS43 KGRR 301736
TAFAZO
TAF
KAZO 301736Z 3018/3118 25005KT P6SM BKN015 OVC025
     FM302000 27005KT P6SM BKN025
     FM310300 00000KT 5SM BR SCT025
     FM310900 00000KT 1 1/2SM BR BKN005=



000
FTUS43 KGRR 301736
TAFBTL
TAF
KBTL 301736Z 3018/3118 25005KT P6SM BKN015 OVC025
     FM302000 27005KT P6SM BKN025
     FM310300 00000KT 5SM BR SCT025
     FM310900 00000KT 1 1/2SM BR BKN005=



000
FTUS43 KGRR 301736
TAFLAN
TAF
KLAN 301736Z 3018/3118 25005KT 6SM HZ BKN015 OVC025
     FM302000 27005KT P6SM BKN025
     FM310300 00000KT 5SM BR SCT025
     FM310900 00000KT 1 1/2SM BR BKN005=



000
FTUS43 KGRR 301431 AAA
TAFAZO
TAF AMD
KAZO 301431Z 3015/3112 21003KT 4SM BR BKN004 OVC009
     FM301600 20006KT P6SM BKN018
     FM302300 25008KT P6SM SKC
     FM310600 VRB03KT 4SM BR SKC
     FM311100 VRB03KT 2SM BR SKC=



000
FTUS43 KGRR 301426 AAB
TAFMKG
TAF AMD
KMKG 301426Z 3014/3112 08003KT 3SM BR BKN004 OVC012
     FM301800 26006KT 5SM BR BKN015
     FM302300 26006KT 6SM HZ SKC
     FM310600 21003KT 1 1/2SM BR BKN005=



000
FTUS43 KGRR 301414 AAA
TAFLAN
TAF AMD
KLAN 301414Z 3014/3112 21004KT 2SM BR OVC004
     FM301500 24004KT 4SM BR OVC009
     FM301700 25005KT 6SM HZ BKN015
     FM301900 25007KT P6SM BKN025
     FM302300 23005KT P6SM SKC
     FM310600 VRB03KT 4SM BR SKC
     FM311100 VRB03KT 2SM BR SKC=



000
FTUS43 KGRR 301414 AAA
TAFLAN
TAF AMD
KLAN 301414Z 3014/3112 21004KT 2SM BR OVC004
     FM301500 24004KT 4SM BR OVC009
     FM301700 25005KT 6SM HZ BKN015
     FM301900 25007KT P6SM BKN025
     FM302300 23005KT P6SM SKC
     FM310600 VRB03KT 4SM BR SKC
     FM311100 VRB03KT 2SM BR SKC=



000
FTUS43 KGRR 301358 AAB
TAFGRR
TAF AMD
KGRR 301358Z 3014/3112 09003KT 1/2SM FG VV002
     FM301500 08004KT 1 1/2SM BR OVC007
     FM301700 25006KT 5SM HZ BKN018
     FM302300 25008KT P6SM SKC
     FM310600 VRB03KT 4SM BR SKC
     FM311100 VRB03KT 2SM BR SKC=



000
FTUS43 KGRR 301311 AAA
TAFBTL
TAF AMD
KBTL 301311Z 3013/3112 20004KT 1/4SM FG VV002
     FM301400 22004KT 2SM BR OVC009
     FM301600 25006KT P6SM BKN018
     FM302300 25008KT P6SM SKC
     FM310600 VRB03KT 4SM BR SKC
     FM311100 VRB03KT 2SM BR SKC=



000
FTUS43 KGRR 301159 AAA
TAFMKG
TAF AMD
KMKG 301159Z 3012/3112 VRB04KT 2SM BR BKN004 BKN035
     FM301400 15005KT 4SM BR SCT005 OVC015
     FM301600 24006KT P6SM BKN020
     FM302300 25008KT P6SM SKC
     FM310600 VRB03KT 4SM BR SKC=



000
FTUS43 KGRR 301159 AAA
TAFMKG
TAF AMD
KMKG 301159Z 3012/3112 VRB04KT 2SM BR BKN004 BKN035
     FM301400 15005KT 4SM BR SCT005 OVC015
     FM301600 24006KT P6SM BKN020
     FM302300 25008KT P6SM SKC
     FM310600 VRB03KT 4SM BR SKC=



000
FTUS43 KGRR 301136 CCA
TAFAZO
TAF COR
KAZO 301136Z 3012/3112 VRB04KT 1SM BR BKN002
      TEMPO 3012/3014 1/4SM FG VV001
     FM301400 08005KT 4SM BR SCT005 OVC015
     FM301600 20006KT P6SM BKN018
     FM302300 25008KT P6SM SKC
     FM310600 VRB03KT 4SM BR SKC
     FM311100 VRB03KT 2SM BR SKC=



000
FTUS43 KGRR 301135
TAFMKG
TAF
KMKG 301135Z 3012/3112 VRB04KT 3SM BR SCT008 BKN035
     FM301400 15005KT 4SM BR SCT005 OVC015
     FM301600 24006KT P6SM BKN020
     FM302300 25008KT P6SM SKC
     FM310600 VRB03KT 4SM BR SKC=



000
FTUS43 KGRR 301135
TAFJXN
TAF
KJXN 301135Z 3012/3112 17005KT 4SM BR SCT005 BKN015
     FM301600 23006KT P6SM BKN025
     FM302300 23005KT P6SM SKC
     FM310500 VRB03KT 4SM BR SKC
     FM311000 VRB03KT 2SM BR SKC=



000
FTUS43 KGRR 301135
TAFGRR
TAF
KGRR 301135Z 3012/3112 VRB04KT 2SM BR BKN004
     FM301400 08005KT 4SM BR SCT005 OVC015
     FM301600 20006KT P6SM BKN018
     FM302300 25008KT P6SM SKC
     FM310600 VRB03KT 4SM BR SKC
     FM311100 VRB03KT 2SM BR SKC=



000
FTUS43 KGRR 301135
TAFAZO
TAF
KAZO 301135Z 3012/3112 VRB04KT 2SM BR BKN003
     FM301400 08005KT 4SM BR SCT005 OVC015
     FM301600 20006KT P6SM BKN018
     FM302300 25008KT P6SM SKC
     FM310600 VRB03KT 4SM BR SKC
     FM311100 VRB03KT 2SM BR SKC=



000
FTUS43 KGRR 301135
TAFBTL
TAF
KBTL 301135Z 3012/3112 VRB04KT 2SM BR BKN003
     FM301400 08005KT 4SM BR SCT005 OVC015
     FM301600 20006KT P6SM BKN018
     FM302300 25008KT P6SM SKC
     FM310600 VRB03KT 4SM BR SKC
     FM311100 VRB03KT 2SM BR SKC=



000
FTUS43 KGRR 301135
TAFLAN
TAF
KLAN 301135Z 3012/3112 VRB03KT 2SM BR OVC012
     FM301400 15005KT 4SM BR SCT005 OVC015
     FM301600 23006KT P6SM BKN025
     FM302300 23005KT P6SM SKC
     FM310600 VRB03KT 4SM BR SKC
     FM311100 VRB03KT 2SM BR SKC=



000
FTUS43 KGRR 301007 AAA
TAFLAN
TAF AMD
KLAN 301007Z 3010/3106 VRB03KT P6SM BKN015
      TEMPO 3010/3014 2SM BR
     FM301400 15005KT 4SM BR SCT005 OVC015
     FM301600 23006KT P6SM BKN025
     FM302300 23005KT P6SM SKC=



000
FTUS43 KGRR 300936 AAB
TAFMKG
TAF AMD
KMKG 300936Z 3010/3106 VRB04KT 3SM BR BKN008
     FM301400 15005KT 4SM BR SCT005 OVC015
     FM301600 20006KT P6SM BKN025
     FM302300 23005KT P6SM SKC=



000
FTUS43 KGRR 300935 AAA
TAFBTL
TAF AMD
KBTL 300935Z 3010/3106 VRB03KT 3SM BR OVC009
     FM301400 15005KT 4SM BR SCT005 OVC015
     FM301600 23006KT P6SM BKN025
     FM302300 23005KT P6SM SKC=



000
FTUS43 KGRR 300837 AAA
TAFAZO
TAF AMD
KAZO 300837Z 3009/3106 VRB03KT 3SM BR OVC009
     FM301000 VRB03KT 1SM BR OVC005
     FM301400 15005KT 4SM BR SCT005 OVC015
     FM301600 23006KT P6SM BKN025
     FM302300 23005KT P6SM SKC=



000
FTUS43 KGRR 300837 AAA
TAFAZO
TAF AMD
KAZO 300837Z 3009/3106 VRB03KT 3SM BR OVC009
     FM301000 VRB03KT 1SM BR OVC005
     FM301400 15005KT 4SM BR SCT005 OVC015
     FM301600 23006KT P6SM BKN025
     FM302300 23005KT P6SM SKC=



000
FTUS43 KGRR 300716 AAA
TAFJXN
TAF AMD
KJXN 300716Z 3007/3106 17005KT 4SM BR SCT005 OVC035
      TEMPO 3008/3012 2SM BR BKN015
     FM301600 23006KT P6SM BKN025
     FM302300 23005KT P6SM SKC=



000
FTUS43 KGRR 300649 AAA
TAFMKG
TAF AMD
KMKG 300649Z 3007/3106 VRB03KT 2SM BR OVC003
     FM301000 VRB03KT 1/2SM FG OVC003
     FM301400 15005KT 4SM BR SCT005 OVC015
     FM301600 20006KT P6SM BKN025
     FM302300 23005KT P6SM SKC=



000
FTUS43 KGRR 300648 AAA
TAFGRR
TAF AMD
KGRR 300648Z 3007/3106 VRB03KT 2SM -DZ BR SCT003 OVC020
     FM301000 VRB03KT 1/2SM FG OVC005
     FM301400 15005KT 4SM BR SCT005 OVC015
     FM301600 23006KT P6SM BKN025
     FM302300 23005KT P6SM SKC=



000
FTUS43 KGRR 300520
TAFJXN
TAF
KJXN 300520Z 3006/3106 08003KT 2SM BR VCSH OVC050
     FM301000 VRB03KT 1/2SM FG OVC005
     FM301400 15005KT 4SM BR SCT005 OVC015
     FM301600 23006KT P6SM BKN025
     FM302300 23005KT P6SM SKC=



000
FTUS43 KGRR 300520
TAFGRR
TAF
KGRR 300520Z 3006/3106 VRB03KT 2SM BR OVC005
     FM301000 VRB03KT 1/2SM FG OVC005
     FM301400 15005KT 4SM BR SCT005 OVC015
     FM301600 23006KT P6SM BKN025
     FM302300 23005KT P6SM SKC=



000
FTUS43 KGRR 300520
TAFAZO
TAF
KAZO 300520Z 3006/3106 VRB03KT 5SM BR OVC035
     FM301000 VRB03KT 1/2SM FG OVC005
     FM301400 15005KT 4SM BR SCT005 OVC015
     FM301600 23006KT P6SM BKN025
     FM302300 23005KT P6SM SKC=



000
FTUS43 KGRR 300520
TAFLAN
TAF
KLAN 300520Z 3006/3106 VRB03KT 5SM BR VCSH OVC050
     FM301000 VRB03KT 1/2SM FG OVC005
     FM301400 15005KT 4SM BR SCT005 OVC015
     FM301600 23006KT P6SM BKN025
     FM302300 23005KT P6SM SKC=



000
FTUS43 KGRR 300520
TAFMKG
TAF
KMKG 300520Z 3006/3106 VRB03KT 2SM BR OVC015
     FM301000 VRB03KT 1/2SM FG OVC005
     FM301400 15005KT 4SM BR SCT005 OVC015
     FM301600 20006KT P6SM BKN025
     FM302300 23005KT P6SM SKC=



000
FTUS43 KGRR 300520
TAFGRR
TAF
KGRR 300520Z 3006/3106 VRB03KT 2SM BR OVC005
     FM301000 VRB03KT 1/2SM FG OVC005
     FM301400 15005KT 4SM BR SCT005 OVC015
     FM301600 23006KT P6SM BKN025
     FM302300 23005KT P6SM SKC=



000
FTUS43 KGRR 300520
TAFAZO
TAF
KAZO 300520Z 3006/3106 VRB03KT 5SM BR OVC035
     FM301000 VRB03KT 1/2SM FG OVC005
     FM301400 15005KT 4SM BR SCT005 OVC015
     FM301600 23006KT P6SM BKN025
     FM302300 23005KT P6SM SKC=



000
FTUS43 KGRR 300520
TAFBTL
TAF
KBTL 300520Z 3006/3106 VRB03KT 5SM BR VCSH OVC050
     FM301000 VRB03KT 1/2SM FG OVC005
     FM301400 15005KT 4SM BR SCT005 OVC015
     FM301600 23006KT P6SM BKN025
     FM302300 23005KT P6SM SKC=



000
FTUS43 KGRR 300520
TAFBTL
TAF
KBTL 300520Z 3006/3106 VRB03KT 5SM BR VCSH OVC050
     FM301000 VRB03KT 1/2SM FG OVC005
     FM301400 15005KT 4SM BR SCT005 OVC015
     FM301600 23006KT P6SM BKN025
     FM302300 23005KT P6SM SKC=



000
FTUS43 KGRR 300520
TAFJXN
TAF
KJXN 300520Z 3006/3106 08003KT 2SM BR VCSH OVC050
     FM301000 VRB03KT 1/2SM FG OVC005
     FM301400 15005KT 4SM BR SCT005 OVC015
     FM301600 23006KT P6SM BKN025
     FM302300 23005KT P6SM SKC=



000
FTUS43 KGRR 300520
TAFLAN
TAF
KLAN 300520Z 3006/3106 VRB03KT 5SM BR VCSH OVC050
     FM301000 VRB03KT 1/2SM FG OVC005
     FM301400 15005KT 4SM BR SCT005 OVC015
     FM301600 23006KT P6SM BKN025
     FM302300 23005KT P6SM SKC=



000
FTUS43 KGRR 300520
TAFMKG
TAF
KMKG 300520Z 3006/3106 VRB03KT 2SM BR OVC015
     FM301000 VRB03KT 1/2SM FG OVC005
     FM301400 15005KT 4SM BR SCT005 OVC015
     FM301600 20006KT P6SM BKN025
     FM302300 23005KT P6SM SKC=



000
FTUS43 KGRR 300322 AAB
TAFGRR
TAF AMD
KGRR 300322Z 3003/3024 VRB03KT 3SM -DZ BR OVC005
     FM300530 VRB03KT 2SM BR OVC005
     FM300700 VRB03KT 1/2SM FG OVC005
     FM301400 15005KT 4SM BR SCT005 OVC015
     FM301600 23006KT P6SM BKN025=



000
FTUS43 KGRR 300321 AAA
TAFBTL
TAF AMD
KBTL 300321Z 3003/3024 VRB03KT 5SM BR VCSH OVC050
     FM300800 VRB03KT 1/2SM FG OVC005
     FM301400 15005KT 4SM BR SCT005 OVC015
     FM301600 23006KT P6SM BKN025=



000
FTUS43 KGRR 300321 AAA
TAFAZO
TAF AMD
KAZO 300321Z 3003/3024 VRB03KT 5SM BR OVC035
     FM300800 VRB03KT 1/2SM FG OVC005
     FM301400 15005KT 4SM BR SCT005 OVC015
     FM301600 23006KT P6SM BKN025=



000
FTUS43 KGRR 300321 AAA
TAFAZO
TAF AMD
KAZO 300321Z 3003/3024 VRB03KT 5SM BR OVC035
     FM300800 VRB03KT 1/2SM FG OVC005
     FM301400 15005KT 4SM BR SCT005 OVC015
     FM301600 23006KT P6SM BKN025=



000
FTUS43 KGRR 300320 AAA
TAFJXN
TAF AMD
KJXN 300320Z 3003/3024 VRB03KT 4SM -SHRA BR OVC050
     FM300800 VRB03KT 1/2SM FG OVC005
     FM301400 15005KT 4SM BR SCT005 OVC015
     FM301600 23006KT P6SM BKN025=



000
FTUS43 KGRR 300320 AAA
TAFLAN
TAF AMD
KLAN 300320Z 3003/3024 VRB03KT 5SM BR VCSH OVC050
     FM300800 VRB03KT 1/2SM FG OVC005
     FM301400 15005KT 4SM BR SCT005 OVC015
     FM301600 23006KT P6SM BKN025=



000
FTUS43 KGRR 300301 AAB
TAFMKG
TAF AMD
KMKG 300301Z 3003/3024 07008KT 3SM BR BKN015 OVC025
     FM300600 VRB03KT 1/2SM FG OVC005
     FM301400 15005KT 4SM BR SCT005 OVC015
     FM301600 20006KT P6SM BKN025=



000
FTUS43 KGRR 300114 AAA
TAFGRR
TAF AMD
KGRR 300114Z 3001/3024 VRB03KT 4SM -DZ BR OVC005
     FM300530 VRB03KT 2SM BR OVC005
     FM300700 VRB03KT 1/2SM FG OVC005
     FM301400 15005KT 4SM BR SCT005 OVC015
     FM301600 23006KT P6SM BKN025=



000
FTUS43 KGRR 300114 AAA
TAFMKG
TAF AMD
KMKG 300114Z 3001/3024 07008KT 4SM -DZ BR OVC035
     FM300200 VRB03KT 4SM -DZ BR OVC009
     FM300300 VRB03KT 2SM BR OVC009
     FM300600 VRB03KT 1/2SM FG OVC005
     FM301400 15005KT 4SM BR SCT005 OVC015
     FM301600 20006KT P6SM BKN025=



000
FTUS43 KGRR 300114 AAA
TAFMKG
TAF AMD
KMKG 300114Z 3001/3024 07008KT 4SM -DZ BR OVC035
     FM300200 VRB03KT 4SM -DZ BR OVC009
     FM300300 VRB03KT 2SM BR OVC009
     FM300600 VRB03KT 1/2SM FG OVC005
     FM301400 15005KT 4SM BR SCT005 OVC015
     FM301600 20006KT P6SM BKN025=



000
FTUS43 KGRR 300114 AAA
TAFGRR
TAF AMD
KGRR 300114Z 3001/3024 VRB03KT 4SM -DZ BR OVC005
     FM300530 VRB03KT 2SM BR OVC005
     FM300700 VRB03KT 1/2SM FG OVC005
     FM301400 15005KT 4SM BR SCT005 OVC015
     FM301600 23006KT P6SM BKN025=



000
FTUS43 KGRR 292342
TAFGRR
TAF
KGRR 292342Z 3000/3024 13008KT 5SM BR VCSH BKN007
     FM300200 VRB03KT 4SM -DZ BR OVC009
     FM300530 VRB03KT 2SM BR OVC005
     FM300700 VRB03KT 1/2SM FG OVC005
     FM301400 15005KT 4SM BR SCT005 OVC015
     FM301600 23006KT P6SM BKN025=



000
FTUS43 KGRR 292342
TAFMKG
TAF
KMKG 292342Z 3000/3024 07008KT 5SM -DZ BR OVC035
     FM300200 VRB03KT 4SM -DZ BR OVC009
     FM300300 VRB03KT 2SM BR OVC009
     FM300600 VRB03KT 1/2SM FG OVC005
     FM301400 15005KT 4SM BR SCT005 OVC015
     FM301600 20006KT P6SM BKN025=



000
FTUS43 KGRR 292342
TAFLAN
TAF
KLAN 292342Z 3000/3024 02005KT 4SM BR OVC035
      TEMPO 3000/3001 3SM -RA BR SCT005 OVC025
     FM300100 VRB03KT 4SM -DZ BR OVC009
     FM300500 VRB03KT 2SM BR OVC009
     FM300800 VRB03KT 1/2SM FG OVC005
     FM301400 15005KT 4SM BR SCT005 OVC015
     FM301600 23006KT P6SM BKN025=



000
FTUS43 KGRR 292342
TAFBTL
TAF
KBTL 292342Z 3000/3024 13006KT 4SM BR VCSH OVC035
      TEMPO 3000/3002 3SM -RA BR OVC015
     FM300200 VRB03KT 4SM -DZ BR OVC009
     FM300400 VRB03KT 2SM BR OVC009
     FM300800 VRB03KT 1/2SM FG OVC005
     FM301400 15005KT 4SM BR SCT005 OVC015
     FM301600 23006KT P6SM BKN025=



000
FTUS43 KGRR 292342
TAFJXN
TAF
KJXN 292342Z 3000/3024 13008KT P6SM VCSH OVC035
      TEMPO 3000/3004 3SM -RA BR OVC025
     FM300400 VRB03KT 4SM BR OVC009
     FM300800 VRB03KT 1/2SM FG OVC005
     FM301400 15005KT 4SM BR SCT005 OVC015
     FM301600 23006KT P6SM BKN025=



000
FTUS43 KGRR 292342
TAFAZO
TAF
KAZO 292342Z 3000/3024 13006KT 4SM BR VCSH OVC035
      TEMPO 3000/3002 3SM -RA BR OVC015
     FM300200 VRB03KT 4SM -DZ BR OVC009
     FM300400 VRB03KT 2SM BR OVC009
     FM300800 VRB03KT 1/2SM FG OVC005
     FM301400 15005KT 4SM BR SCT005 OVC015
     FM301600 23006KT P6SM BKN025=



000
FTUS43 KGRR 292215 AAB
TAFLAN
TAF AMD
KLAN 292215Z 2922/3018 02005KT P6SM VCSH OVC035
      TEMPO 2922/2924 2SM -RA BR OVC025
     FM300000 13008KT P6SM VCSH OVC030
     FM300400 VRB03KT 4SM BR OVC015
     FM300800 VRB03KT 1/2SM FG OVC005
     FM301400 15005KT 4SM BR SCT005 OVC015
     FM301600 23006KT P6SM BKN025=



000
FTUS43 KGRR 292131 AAA
TAFLAN
TAF AMD
KLAN 292131Z 2922/3018 10005KT P6SM VCSH OVC060
     FM292300 13008KT P6SM VCSH OVC030
     FM300400 VRB03KT 4SM BR OVC015
     FM300800 VRB03KT 1/2SM FG OVC005
     FM301400 15005KT 4SM BR SCT005 OVC015
     FM301600 23006KT P6SM BKN025=



000
FTUS43 KGRR 292130 AAA
TAFBTL
TAF AMD
KBTL 292130Z 2922/3018 10005KT P6SM VCSH OVC060
     FM292330 13008KT P6SM VCSH OVC030
     FM300400 VRB03KT 4SM BR OVC015
     FM300800 VRB03KT 1/2SM FG OVC005
     FM301400 15005KT 4SM BR SCT005 OVC015
     FM301600 23006KT P6SM BKN025=



000
FTUS43 KGRR 292130 AAA
TAFAZO
TAF AMD
KAZO 292130Z 2922/3018 15005KT P6SM VCSH OVC040
     FM292300 13008KT P6SM VCSH OVC030
     FM300400 VRB03KT 4SM BR OVC015
     FM300800 VRB03KT 1/2SM FG OVC005
     FM301400 15005KT 4SM BR SCT005 OVC015
     FM301600 23006KT P6SM BKN025=



000
FTUS43 KGRR 292027 AAA
TAFMKG
TAF AMD
KMKG 292027Z 2920/3018 07008KT P6SM VCSH OVC025
      TEMPO 2920/2923 2SM -RA BR
     FM300200 VRB03KT 4SM BR OVC015
     FM300600 VRB03KT 1/2SM FG OVC005
     FM301400 15005KT 4SM BR SCT005 OVC015
     FM301600 20006KT P6SM BKN025=



000
FTUS43 KGRR 292027 AAA
TAFMKG
TAF AMD
KMKG 292027Z 2920/3018 07008KT P6SM VCSH OVC025
      TEMPO 2920/2923 2SM -RA BR
     FM300200 VRB03KT 4SM BR OVC015
     FM300600 VRB03KT 1/2SM FG OVC005
     FM301400 15005KT 4SM BR SCT005 OVC015
     FM301600 20006KT P6SM BKN025=



    US Dept of Commerce
    National Oceanic and Atmospheric Administration
    National Weather Service
    1325 East West Highway
    Silver Spring, MD 20910
    Page Author: NWS Internet Services Team
Disclaimer
Information Quality
Credits
Glossary
Privacy Policy
Freedom of Information Act (FOIA)
About Us
Career Opportunities